LFBTLFMU

Guest
Details From LFBT - Tarbes Ossun Lourdes
To LFMU - Beziers Vias
Flight Number -
Tags generated
Created
Modified
Stats Distance 147 nm / 273 km
Max Altitude 9,300 ft / 2,835 m
Waypoints 3
Social Downloads 276
Likes 0
Share VATSIM

Download

Looking for another format? Having issues loading an existing format? Contact us
Advertisement - Login to hide

Notes

Basic altitude profile: - Ascent Rate: 2500ft/min - Ascent Speed: 250kts - Cruise Altitude: 35000ft - Cruise Speed: 420kts - Descent Rate: 1500ft/min - Descent Speed: 250kts Options: - Use NATs: yes - Use PACOTS: yes - Use low airways: yes - Use high airways: yes

Route

LFBT SALSI LFMU

ID Type Via Altitude Latitude Longitude Leg Dist Tot Dist Heading (true) Name
O LFBT APT - 0 ft / 0 m 43.17864˚ -0.00634˚ - 0 nm - Tarbes Ossun Lourdes
SALSI FIX - 9,300 ft / 2,835 m 43.34778˚ 2.35722˚ 103 nm 103 nm 84° / 85° -
O LFMU APT - 0 ft / 0 m 43.32342˚ 3.35357˚ 43 nm 147 nm 92° / 92° Beziers Vias

Altitude Profile

Advertisement - Login to hide

LFBT

Details ICAO LFBT (LDE)
Name Tarbes Ossun Lourdes
Region France
Timezone Europe/Paris (UTC+1.0)
Stats Elevation 1,260 ft / 384 m (AMSL)
Location 43.178643° -0.006340°
Runways 1
Magnetic Variation 0.218° E

METAR

LFBT 150600Z AUTO 30016KT 6000 RA BKN014/// OVC021/// ///TCU 05/03 Q1010 TEMPO 28020G35KT 2000 SHRA BKN010 BKN015CB

Decode

TAF

TAF TAF LFBT 150500Z 1506/1606 26012KT 9999 BKN016TCU OVC035 TEMPO 1506/1521 28020G35KT 2000 SHRA BKN010 BKN015CB

Decode

Departure Runways

ID Width Length Bearing (true) Bearing (mag) Surface Threshold Offset Overrun Length
02 148 ft / 45 m 9,847 ft / 3,001 m 20.26° 20.04° Asphalt 2,199 ft / 670 m 0 ft / 0 m
20 148 ft / 45 m 9,847 ft / 3,001 m 200.27° 200.05° Asphalt 0 ft / 0 m 0 ft / 0 m

LFMU

Details ICAO LFMU (BZR)
Name Beziers Vias
Region France
Timezone Europe/Paris (UTC+1.0)
Stats Elevation 54 ft / 16 m (AMSL)
Location 43.323422° 3.353573°
Runways 1
Magnetic Variation 1.100° E

METAR

LFMU 150600Z AUTO 33013KT 9999 BKN042 OVC049 08/03 Q1006 TEMPO RA

Decode

TAF

TAF LFMU 150200Z 1503/1603 28012KT CAVOK TEMPO 1504/1507 36012KT RA BKN040 TEMPO 1512/1520 30020G30KT TEMPO 1520/1524 28025G35KT TEMPO 1600/1603 30020G30KT

Decode

Destination Runways

ID Width Length Bearing (true) Bearing (mag) Surface Threshold Offset Overrun Length
10 115 ft / 35 m 5,955 ft / 1,815 m 94.20° 93.10° Asphalt 459 ft / 140 m 0 ft / 0 m
28 115 ft / 35 m 5,955 ft / 1,815 m 274.22° 273.12° Asphalt 0 ft / 0 m 0 ft / 0 m

Approach Navaids

Runway Type Ident Frequency Range Bearing (true) Bearing (mag) Slope Elevation
10 Localiser ZR 109.35 MHz 18 nm / 33 km 94.52° 93.42° - 50 ft / 15 m (AMSL)
10 Glidescope ZR 109.35 MHz 10 nm / 19 km 94.21° 93.11° 3.00° 92 ft / 28 m (AMSL)
10 DME ZR 109.35 MHz 18 nm / 33 km - - - 92 ft / 28 m (AMSL)